Big Torch Key, Florida
Current Conditions -  °F | °C
As of 12:53 AM on Wednesday 22 Oct 2014 (Local Time) from KNQX Reporting Station
Broken Clouds Broken Clouds  
Wind Chill: 24°   Ceiling: 12000
Heat Index: 24°   Visibility: 10mi
Dew Point: 22°   Wind: 5mph
Humidity: 87%   Direction: 90°E
Pressure: 29.92"   Gusts: NA
Location:  24.6465°N, 81.5399°W
Report Text: KNQX 220453Z AUTO 09004KT 10SM BKN120 24/22 A2992 RMK AO2 SLP130 T02440222 402720222 TSNO $
Loading
Personal Weather Stations






























Interactive Weather Map
Tropical Storm Tracking
New forecast layout! Learn more

10-Day Weather Forecast

Advertisements
Track Severe Weather on mobile